Time;durP1;ratioP1;P1;durP2;ratioP2;P2;SDS_P1;SDS_P2;PMS_P1;PMS_P2;Temp;Humidity;BMP_temperature;BMP_pressure;BME280_temperature;BME280_humidity;BME280_pressure;Samples;Min_cycle;Max_cycle;Signal;HPM_P1;HPM_P2
2023/03/11 00:01:16;;;;;;;20.33;11.98;;;0.20;99.90;;;;;;4994637;28;20214;-63
2023/03/11 00:03:42;;;;;;;23.80;14.55;;;0.20;99.90;;;;;;4994530;28;20207;-63
2023/03/11 00:06:09;;;;;;;24.88;15.38;;;0.20;99.90;;;;;;4995265;28;20231;-65
2023/03/11 00:08:36;;;;;;;19.63;11.93;;;0.20;99.90;;;;;;4995377;28;20210;-63
2023/03/11 00:11:03;;;;;;;19.13;13.27;;;0.20;99.90;;;;;;4994575;28;20208;-64
2023/03/11 00:13:30;;;;;;;23.98;14.18;;;0.20;99.90;;;;;;4995563;28;20258;-63
2023/03/11 00:15:58;;;;;;;19.85;13.32;;;0.20;99.90;;;;;;4994634;28;20322;-63
2023/03/11 00:18:29;;;;;;;20.38;12.88;;;0.20;99.90;;;;;;4995660;28;20677;-63
2023/03/11 00:20:57;;;;;;;12.55;9.32;;;0.20;99.90;;;;;;4995266;28;20192;-63
2023/03/11 00:23:25;;;;;;;13.90;9.80;;;0.20;99.90;;;;;;4996521;28;20215;-64
2023/03/11 00:25:53;;;;;;;19.33;12.00;;;0.20;99.90;;;;;;4996536;28;20223;-63
2023/03/11 00:28:21;;;;;;;18.42;12.57;;;0.20;99.90;;;;;;4998739;28;20206;-64
2023/03/11 00:30:47;;;;;;;13.90;8.85;;;0.20;99.90;;;;;;4999608;28;20690;-64
2023/03/11 00:33:15;;;;;;;18.65;9.07;;;0.20;99.90;;;;;;5001148;28;20203;-63
2023/03/11 00:35:44;;;;;;;16.30;10.40;;;0.20;99.90;;;;;;5000313;28;20231;-64
2023/03/11 00:38:14;;;;;;;14.93;9.85;;;0.20;99.90;;;;;;4999029;28;20208;-63
2023/03/11 00:40:41;;;;;;;17.75;12.00;;;0.20;99.90;;;;;;4999452;28;20695;-63
2023/03/11 00:43:07;;;;;;;15.07;10.38;;;0.20;99.90;;;;;;5000791;28;20211;-63
2023/03/11 00:45:34;;;;;;;6.57;5.20;;;0.20;99.90;;;;;;5000104;28;20227;-63
2023/03/11 00:48:01;;;;;;;15.98;9.98;;;0.20;99.90;;;;;;4999903;28;20199;-63
2023/03/11 00:50:29;;;;;;;12.25;8.55;;;0.20;99.90;;;;;;5004749;28;20291;-63
2023/03/11 00:52:58;;;;;;;14.05;9.98;;;0.20;99.90;;;;;;4998155;28;20204;-64
2023/03/11 00:55:27;;;;;;;13.00;8.88;;;0.20;99.90;;;;;;4997617;28;20234;-64
2023/03/11 00:57:54;;;;;;;16.00;9.73;;;0.20;99.90;;;;;;4998218;28;20208;-64
2023/03/11 01:00:23;;;;;;;14.00;9.70;;;0.20;99.90;;;;;;4998624;28;20216;-62
2023/03/11 01:02:50;;;;;;;12.25;8.60;;;0.20;99.90;;;;;;4999138;28;20207;-63
2023/03/11 01:05:19;;;;;;;13.32;7.43;;;0.20;99.90;;;;;;4997800;28;20236;-63
2023/03/11 01:07:46;;;;;;;9.57;7.30;;;0.20;99.90;;;;;;4997461;28;20311;-64
2023/03/11 01:10:15;;;;;;;9.88;6.63;;;0.20;99.90;;;;;;4997843;28;20412;-64
2023/03/11 01:12:43;;;;;;;8.90;6.03;;;0.20;99.90;;;;;;4999485;28;20204;-62
2023/03/11 01:15:16;;;;;;;10.70;6.03;;;0.20;99.90;;;;;;4998494;28;20227;-64
2023/03/11 01:17:43;;;;;;;8.65;5.60;;;0.20;99.90;;;;;;4998345;28;20208;-64
2023/03/11 01:20:11;;;;;;;7.82;5.10;;;0.20;99.90;;;;;;4998076;28;20208;-65
2023/03/11 01:22:38;;;;;;;5.22;3.72;;;0.20;99.90;;;;;;4998651;28;20204;-63
2023/03/11 01:25:05;;;;;;;7.00;5.47;;;0.20;99.90;;;;;;4997885;28;20224;-63
2023/03/11 01:27:33;;;;;;;8.45;5.80;;;0.20;99.90;;;;;;4998996;28;20199;-64
2023/03/11 01:30:00;;;;;;;5.40;4.10;;;0.10;99.90;;;;;;4998574;28;20206;-63
2023/03/11 01:32:27;;;;;;;8.25;5.50;;;0.10;99.90;;;;;;4998051;28;20208;-63
2023/03/11 01:34:53;;;;;;;5.30;3.95;;;0.10;99.90;;;;;;4998244;28;20234;-64
2023/03/11 01:37:20;;;;;;;5.60;3.85;;;0.10;99.90;;;;;;4998090;28;20717;-63
2023/03/11 01:39:47;;;;;;;5.82;4.05;;;0.10;99.90;;;;;;4997000;28;20200;-63
2023/03/11 01:42:14;;;;;;;7.18;4.45;;;0.10;99.90;;;;;;4998459;28;20215;-62
2023/03/11 01:44:42;;;;;;;7.50;4.18;;;0.10;99.90;;;;;;4997026;28;20206;-64
2023/03/11 01:47:37;;;;;;;8.65;4.75;;;0.10;99.90;;;;;;4997090;28;20203;-63
2023/03/11 01:50:06;;;;;;;7.03;4.88;;;0.10;99.90;;;;;;4997126;28;20199;-62
2023/03/11 01:52:33;;;;;;;6.00;4.53;;;0.10;99.90;;;;;;4996852;28;20211;-63
2023/03/11 01:55:00;;;;;;;7.38;5.43;;;0.10;99.90;;;;;;4996220;28;20200;-64
2023/03/11 01:57:27;;;;;;;9.15;5.85;;;0.20;99.90;;;;;;4996313;28;20310;-65
2023/03/11 01:59:57;;;;;;;6.80;4.18;;;0.10;99.90;;;;;;4996226;28;20203;-64
2023/03/11 02:02:30;;;;;;;10.50;5.93;;;0.20;99.90;;;;;;4996509;28;20291;-64
2023/03/11 02:04:59;;;;;;;6.03;4.63;;;0.20;99.90;;;;;;4996106;28;20188;-63
2023/03/11 02:07:25;;;;;;;12.23;6.47;;;0.20;99.90;;;;;;4996371;28;20297;-63
2023/03/11 02:09:52;;;;;;;9.13;5.68;;;0.20;99.90;;;;;;4996302;28;20204;-63
2023/03/11 02:12:19;;;;;;;9.10;4.97;;;0.10;99.90;;;;;;4996166;28;20211;-64
2023/03/11 02:14:48;;;;;;;9.82;6.40;;;0.20;99.90;;;;;;4996260;28;20200;-63
2023/03/11 02:17:17;;;;;;;10.77;6.38;;;0.10;99.90;;;;;;4996464;28;20227;-64
2023/03/11 02:20:02;;;;;;;6.93;3.83;;;0.10;99.90;;;;;;4995828;28;20203;-64
2023/03/11 02:22:32;;;;;;;8.55;5.05;;;0.20;99.90;;;;;;4996299;28;20200;-64
2023/03/11 02:25:05;;;;;;;8.55;6.15;;;0.10;99.90;;;;;;4995781;28;20200;-63
2023/03/11 02:27:35;;;;;;;7.90;5.43;;;0.10;99.90;;;;;;4996594;28;20191;-64
2023/03/11 02:30:03;;;;;;;9.05;5.90;;;0.10;99.90;;;;;;4996594;28;20208;-63
2023/03/11 02:32:30;;;;;;;13.60;5.88;;;0.10;99.90;;;;;;4997091;28;20756;-64
2023/03/11 02:34:57;;;;;;;11.18;5.13;;;0.10;99.90;;;;;;5005907;28;20210;-64
2023/03/11 02:37:24;;;;;;;9.30;5.15;;;0.10;99.90;;;;;;5003245;28;20219;-63
2023/03/11 02:39:52;;;;;;;12.38;6.32;;;0.10;99.90;;;;;;5002797;28;20203;-64
2023/03/11 02:42:23;;;;;;;10.60;6.15;;;0.10;99.90;;;;;;5001881;28;20200;-64
2023/03/11 02:44:58;;;;;;;9.75;5.35;;;0.10;99.90;;;;;;5001166;28;20650;-64
2023/03/11 02:47:26;;;;;;;9.63;5.88;;;0.10;99.90;;;;;;5001047;28;20195;-64
2023/03/11 02:49:53;;;;;;;8.95;5.53;;;0.10;99.90;;;;;;4999154;28;20678;-63
2023/03/11 02:52:21;;;;;;;9.40;5.85;;;0.10;99.90;;;;;;5000091;28;20210;-64
2023/03/11 02:54:48;;;;;;;7.85;5.70;;;0.20;99.90;;;;;;5001600;28;20200;-64
2023/03/11 02:57:15;;;;;;;6.25;5.00;;;0.10;99.90;;;;;;5001909;28;20230;-64
2023/03/11 02:59:41;;;;;;;8.25;5.65;;;0.10;99.90;;;;;;5001531;28;20202;-64
2023/03/11 03:02:10;;;;;;;7.55;5.30;;;0.10;99.90;;;;;;5001384;28;20674;-64
2023/03/11 03:04:36;;;;;;;9.27;6.75;;;0.10;99.90;;;;;;4998034;28;20200;-63
2023/03/11 03:07:03;;;;;;;7.55;5.88;;;0.10;99.90;;;;;;4996110;28;20224;-63
2023/03/11 03:09:30;;;;;;;8.38;5.20;;;0.10;99.90;;;;;;4998159;28;20199;-63
2023/03/11 03:11:57;;;;;;;7.57;5.50;;;0.10;99.90;;;;;;4997844;28;20207;-63
2023/03/11 03:14:23;;;;;;;7.13;5.18;;;0.10;99.90;;;;;;4996498;28;20207;-62
2023/03/11 03:16:50;;;;;;;9.63;5.53;;;0.10;99.90;;;;;;4996358;28;20220;-63
2023/03/11 03:19:18;;;;;;;7.05;5.10;;;0.10;99.90;;;;;;4997383;28;20200;-63
2023/03/11 03:21:45;;;;;;;13.18;6.00;;;0.10;99.90;;;;;;4997810;28;20218;-63
2023/03/11 03:24:12;;;;;;;9.95;5.40;;;0.10;99.90;;;;;;4994680;28;20204;-63
2023/03/11 03:26:38;;;;;;;9.57;4.97;;;0.10;99.90;;;;;;4994351;28;20220;-64
2023/03/11 03:29:05;;;;;;;9.13;5.50;;;0.10;99.90;;;;;;4994933;28;20307;-63
2023/03/11 03:31:32;;;;;;;8.65;4.82;;;0.10;99.90;;;;;;4994382;28;20215;-63
2023/03/11 03:33:59;;;;;;;7.32;4.38;;;0.10;99.90;;;;;;4994226;28;20204;-63
2023/03/11 03:36:27;;;;;;;9.32;5.90;;;0.10;99.90;;;;;;4994308;28;20231;-63
2023/03/11 03:38:55;;;;;;;7.78;5.55;;;0.10;99.90;;;;;;4994808;28;20204;-63
2023/03/11 03:41:22;;;;;;;7.45;4.80;;;0.10;99.90;;;;;;4995425;28;20208;-63
2023/03/11 03:43:48;;;;;;;10.90;5.32;;;0.10;99.90;;;;;;4994528;28;20207;-63
2023/03/11 03:46:16;;;;;;;8.70;4.68;;;0.10;99.90;;;;;;4994082;28;20227;-63
2023/03/11 03:48:43;;;;;;;8.15;4.95;;;0.10;99.90;;;;;;4993985;28;20204;-63
2023/03/11 03:51:11;;;;;;;6.78;4.03;;;0.10;99.90;;;;;;4994484;28;20203;-63
2023/03/11 03:53:39;;;;;;;11.45;5.00;;;0.10;99.90;;;;;;4993864;28;20582;-63
2023/03/11 03:56:08;;;;;;;7.55;4.15;;;0.10;99.90;;;;;;4993759;28;20612;-63
2023/03/11 03:58:35;;;;;;;5.95;4.20;;;0.10;99.90;;;;;;4993847;28;20231;-63
2023/03/11 04:01:03;;;;;;;5.95;3.88;;;0.10;99.90;;;;;;4993636;28;20204;-63
2023/03/11 04:03:30;;;;;;;12.63;5.25;;;0.10;99.90;;;;;;4993951;28;20673;-63
2023/03/11 04:06:06;;;;;;;7.70;4.60;;;0.10;99.90;;;;;;4993705;28;20238;-63
2023/03/11 04:11:21;;;;;;;10.43;4.65;;;0.10;99.90;;;;;;5132475;27;20596;-63
2023/03/11 04:13:48;;;;;;;10.63;4.22;;;0.10;99.90;;;;;;5137505;28;20203;-63
2023/03/11 04:16:17;;;;;;;9.80;3.97;;;0.10;99.90;;;;;;5133294;28;20223;-63
2023/03/11 04:18:44;;;;;;;6.05;4.40;;;0.10;99.90;;;;;;5131968;28;20199;-63
2023/03/11 04:21:11;;;;;;;8.15;3.15;;;0.10;99.90;;;;;;5133249;28;20664;-63
2023/03/11 04:23:38;;;;;;;5.60;4.40;;;0.10;99.90;;;;;;5142955;28;20199;-63
2023/03/11 04:26:04;;;;;;;3.42;2.28;;;0.10;99.90;;;;;;5136522;28;20222;-63
2023/03/11 04:28:33;;;;;;;7.45;4.40;;;0.10;99.90;;;;;;5132127;28;20213;-63
2023/03/11 04:30:59;;;;;;;7.95;3.75;;;0.10;99.90;;;;;;5132203;28;20215;-63
2023/03/11 04:33:26;;;;;;;8.02;3.55;;;0.10;99.90;;;;;;5132865;28;20689;-63
2023/03/11 04:35:53;;;;;;;3.72;3.25;;;0.10;99.90;;;;;;5134216;28;20722;-62
2023/03/11 04:38:20;;;;;;;7.90;3.92;;;0.00;99.90;;;;;;5134686;28;20202;-63
2023/03/11 04:40:46;;;;;;;2.83;2.55;;;0.00;99.90;;;;;;5135450;28;20199;-63
2023/03/11 04:43:13;;;;;;;12.27;3.75;;;0.00;99.90;;;;;;5135555;28;20231;-63
2023/03/11 04:45:42;;;;;;;10.95;4.18;;;0.00;99.90;;;;;;5137054;28;20219;-63
2023/03/11 04:48:09;;;;;;;6.20;3.00;;;0.00;99.90;;;;;;5139438;27;20203;-63
2023/03/11 04:50:36;;;;;;;4.10;2.75;;;-0.10;99.90;;;;;;5130778;28;20699;-63
2023/03/11 04:53:02;;;;;;;6.80;3.47;;;-0.10;99.90;;;;;;5130850;28;20210;-62
2023/03/11 04:55:29;;;;;;;5.07;2.65;;;-0.10;99.90;;;;;;5132516;28;20246;-64
2023/03/11 04:57:56;;;;;;;4.20;3.17;;;-0.20;99.90;;;;;;5132964;28;20202;-63
2023/03/11 05:00:23;;;;;;;8.82;2.88;;;-0.20;99.90;;;;;;5132994;28;20195;-63
2023/03/11 05:02:52;;;;;;;6.18;2.85;;;-0.20;99.90;;;;;;5132802;28;20195;-63
2023/03/11 05:05:19;;;;;;;6.20;3.20;;;-0.20;99.90;;;;;;5134192;28;20222;-64
2023/03/11 05:07:46;;;;;;;3.85;2.50;;;-0.30;99.90;;;;;;5134223;28;20202;-63
2023/03/11 05:10:13;;;;;;;11.25;3.25;;;-0.20;99.90;;;;;;5133478;28;20268;-63
2023/03/11 05:12:40;;;;;;;4.55;2.95;;;-0.20;99.90;;;;;;5134236;28;20199;-63
2023/03/11 05:15:08;;;;;;;2.55;2.35;;;-0.20;99.90;;;;;;5133337;28;20223;-63
2023/03/11 05:17:34;;;;;;;3.17;1.75;;;-0.20;99.90;;;;;;5134779;28;20248;-63
2023/03/11 05:20:06;;;;;;;7.68;2.58;;;-0.20;99.90;;;;;;5134228;28;20218;-63
2023/03/11 05:22:33;;;;;;;2.70;2.38;;;-0.20;99.90;;;;;;5121423;28;20184;-63
2023/03/11 05:25:00;;;;;;;4.13;2.03;;;-0.20;99.90;;;;;;5120873;28;20704;-63
2023/03/11 05:27:27;;;;;;;4.85;2.50;;;-0.20;99.90;;;;;;5122132;28;20212;-63
2023/03/11 05:29:54;;;;;;;6.80;2.53;;;-0.20;99.90;;;;;;5121350;28;20227;-62
2023/03/11 05:32:21;;;;;;;6.78;2.05;;;-0.20;99.90;;;;;;5118774;28;20199;-63
2023/03/11 05:34:48;;;;;;;2.53;2.30;;;-0.20;99.90;;;;;;5119570;28;20203;-62
2023/03/11 05:37:16;;;;;;;5.22;2.85;;;-0.20;99.90;;;;;;5119496;28;20282;-62
2023/03/11 05:39:43;;;;;;;7.30;2.65;;;-0.10;99.90;;;;;;5118103;28;20295;-62
2023/03/11 05:42:10;;;;;;;6.88;2.95;;;-0.10;99.90;;;;;;5118927;28;20199;-63
2023/03/11 05:44:37;;;;;;;7.50;2.30;;;-0.10;99.90;;;;;;5120626;28;20291;-63
2023/03/11 05:47:04;;;;;;;5.20;2.72;;;-0.10;99.90;;;;;;5120717;28;20227;-62
2023/03/11 05:49:31;;;;;;;3.58;3.28;;;-0.10;99.90;;;;;;5120149;28;20291;-62
2023/03/11 05:51:57;;;;;;;3.42;2.30;;;-0.10;99.90;;;;;;5119775;28;20211;-62
2023/03/11 05:54:26;;;;;;;3.72;2.30;;;-0.10;99.90;;;;;;5122853;28;20570;-62
2023/03/11 05:56:52;;;;;;;3.38;2.75;;;-0.10;99.90;;;;;;5118666;28;20227;-62
2023/03/11 05:59:19;;;;;;;2.95;2.38;;;-0.10;99.90;;;;;;5117771;28;20203;-63
2023/03/11 06:01:46;;;;;;;8.98;2.88;;;-0.10;99.90;;;;;;5117293;28;20203;-62
2023/03/11 06:04:13;;;;;;;8.50;2.47;;;-0.10;99.90;;;;;;5116480;28;20207;-63
2023/03/11 06:06:40;;;;;;;8.02;2.95;;;-0.10;99.90;;;;;;5116756;28;20220;-62
2023/03/11 06:09:11;;;;;;;3.17;2.45;;;-0.10;99.90;;;;;;5115854;28;20207;-62
2023/03/11 06:11:39;;;;;;;6.22;2.90;;;-0.10;99.90;;;;;;5115551;28;20208;-63
2023/03/11 06:14:06;;;;;;;7.22;2.33;;;-0.10;99.90;;;;;;5115412;28;20226;-61
2023/03/11 06:16:33;;;;;;;8.10;3.00;;;-0.10;99.90;;;;;;5116048;28;20219;-61
2023/03/11 06:19:00;;;;;;;4.15;2.58;;;0.00;99.90;;;;;;5116584;28;20565;-62
2023/03/11 06:21:26;;;;;;;3.38;2.33;;;0.00;99.90;;;;;;5115468;28;20217;-62
2023/03/11 06:23:54;;;;;;;7.35;2.40;;;0.00;99.90;;;;;;5115522;28;20200;-62
2023/03/11 06:26:21;;;;;;;4.65;2.92;;;0.00;99.90;;;;;;5115432;28;20224;-62
2023/03/11 06:28:51;;;;;;;7.57;2.50;;;0.00;99.90;;;;;;5115785;28;20282;-62
2023/03/11 06:31:20;;;;;;;6.57;2.45;;;0.00;99.90;;;;;;5115694;28;20221;-62
2023/03/11 06:33:47;;;;;;;9.35;2.90;;;0.00;99.90;;;;;;5114854;28;20204;-62
2023/03/11 06:36:16;;;;;;;4.80;2.13;;;0.00;99.90;;;;;;5116497;28;20320;-62
2023/03/11 06:38:43;;;;;;;10.63;2.25;;;0.00;99.90;;;;;;5115545;28;20206;-63
2023/03/11 06:41:10;;;;;;;3.95;1.95;;;0.00;99.90;;;;;;5115238;28;20199;-61
2023/03/11 06:43:37;;;;;;;4.68;1.95;;;0.00;99.90;;;;;;5115486;28;20204;-62
2023/03/11 06:46:10;;;;;;;3.40;2.00;;;0.00;99.90;;;;;;5114983;28;20746;-62
2023/03/11 06:48:37;;;;;;;6.25;2.78;;;0.00;99.90;;;;;;5115658;28;20188;-63
2023/03/11 06:51:04;;;;;;;4.10;2.50;;;0.00;99.90;;;;;;5115385;28;20587;-62
2023/03/11 06:53:31;;;;;;;4.03;2.20;;;0.10;99.90;;;;;;5115544;28;20578;-62
2023/03/11 06:55:59;;;;;;;6.30;1.80;;;0.10;99.90;;;;;;5114916;28;20246;-61
2023/03/11 06:58:27;;;;;;;6.05;2.65;;;0.10;99.90;;;;;;5114897;28;20573;-62
2023/03/11 07:00:53;;;;;;;4.72;2.13;;;0.10;99.90;;;;;;5115433;28;20196;-62
2023/03/11 07:03:21;;;;;;;2.60;2.08;;;0.10;99.90;;;;;;5115784;28;20203;-63
2023/03/11 07:05:51;;;;;;;11.43;2.40;;;0.10;99.90;;;;;;5115497;28;20219;-62
2023/03/11 07:08:18;;;;;;;4.25;1.75;;;0.10;99.90;;;;;;5115310;28;20212;-63
2023/03/11 07:10:45;;;;;;;6.90;2.20;;;0.10;99.90;;;;;;5115046;28;20755;-62
2023/03/11 07:13:12;;;;;;;8.35;2.33;;;0.10;99.90;;;;;;5116044;28;20234;-61
2023/03/11 07:15:39;;;;;;;2.03;1.75;;;0.10;99.90;;;;;;5115519;28;20692;-63
2023/03/11 07:18:06;;;;;;;4.47;2.60;;;0.10;99.90;;;;;;5115534;28;20207;-62
2023/03/11 07:20:34;;;;;;;3.58;2.00;;;0.10;99.90;;;;;;5115062;28;20192;-62
2023/03/11 07:23:00;;;;;;;2.50;1.58;;;0.10;99.90;;;;;;5114753;28;20208;-62
2023/03/11 07:25:27;;;;;;;2.42;1.17;;;0.10;99.90;;;;;;5114813;28;20224;-62
2023/03/11 07:27:54;;;;;;;3.67;1.75;;;0.10;99.90;;;;;;5114720;28;20215;-60
2023/03/11 07:30:21;;;;;;;12.05;2.22;;;0.10;99.90;;;;;;5115118;28;20221;-63
2023/03/11 07:32:47;;;;;;;7.43;2.08;;;0.20;99.90;;;;;;5115194;28;20195;-63
2023/03/11 07:35:14;;;;;;;6.05;1.85;;;0.20;99.90;;;;;;5120717;28;20730;-62
2023/03/11 07:37:42;;;;;;;4.00;1.83;;;0.20;99.90;;;;;;5115836;28;20199;-62
2023/03/11 07:40:10;;;;;;;12.68;2.20;;;0.30;99.90;;;;;;5114896;28;20199;-62
2023/03/11 07:42:37;;;;;;;7.32;2.22;;;0.20;99.90;;;;;;5114840;27;20207;-62
2023/03/11 07:45:04;;;;;;;4.38;2.42;;;0.30;99.90;;;;;;5114142;28;20227;-62
2023/03/11 07:47:31;;;;;;;2.55;2.30;;;0.30;99.90;;;;;;5114468;28;20207;-61
2023/03/11 07:49:57;;;;;;;2.05;1.40;;;0.30;99.90;;;;;;5115478;28;20211;-62
2023/03/11 07:52:24;;;;;;;3.97;1.95;;;0.30;99.90;;;;;;5114664;28;20226;-62
2023/03/11 07:54:52;;;;;;;3.38;1.90;;;0.30;99.90;;;;;;5114596;28;20211;-63
2023/03/11 07:57:19;;;;;;;2.80;2.13;;;0.30;99.90;;;;;;5115053;28;20295;-62
2023/03/11 07:59:46;;;;;;;5.13;1.85;;;0.30;99.90;;;;;;5115577;28;20199;-62
2023/03/11 08:02:12;;;;;;;3.15;1.50;;;0.30;99.90;;;;;;5115101;28;20664;-62
2023/03/11 08:04:39;;;;;;;3.42;2.03;;;0.30;99.90;;;;;;5114273;28;20199;-61
2023/03/11 08:07:06;;;;;;;3.88;2.00;;;0.30;99.90;;;;;;5114157;28;20223;-62
2023/03/11 08:09:34;;;;;;;4.82;1.98;;;0.30;99.90;;;;;;5098893;28;20560;-63
2023/03/11 08:12:02;;;;;;;3.30;1.80;;;0.50;99.90;;;;;;5102657;28;20220;-63
2023/03/11 08:14:29;;;;;;;5.32;1.70;;;0.60;99.90;;;;;;5114561;28;20207;-61
2023/03/11 08:16:56;;;;;;;2.13;1.50;;;0.60;99.90;;;;;;5106570;28;20231;-63
2023/03/11 08:19:22;;;;;;;3.63;2.40;;;0.70;99.90;;;;;;5103914;28;20676;-62
2023/03/11 08:21:49;;;;;;;3.85;1.73;;;0.70;99.90;;;;;;5096832;28;20208;-61
2023/03/11 08:24:16;;;;;;;2.45;2.20;;;0.90;99.90;;;;;;5101591;28;20206;-63
2023/03/11 08:26:43;;;;;;;4.82;2.00;;;1.00;99.90;;;;;;5107749;28;20227;-63
2023/03/11 08:29:11;;;;;;;5.45;2.20;;;1.20;99.90;;;;;;5112887;28;20206;-63
2023/03/11 08:31:38;;;;;;;3.47;2.85;;;1.20;99.90;;;;;;5114067;28;20216;-62
2023/03/11 08:34:07;;;;;;;1.52;1.42;;;1.20;99.90;;;;;;5113228;28;20560;-62
2023/03/11 08:36:34;;;;;;;2.22;2.03;;;1.20;99.90;;;;;;5115130;28;20235;-62
2023/03/11 08:39:00;;;;;;;2.47;1.58;;;1.20;99.90;;;;;;5103899;28;20202;-62
2023/03/11 08:41:28;;;;;;;4.05;1.90;;;1.30;99.90;;;;;;5095905;28;20200;-63
2023/03/11 08:43:54;;;;;;;2.40;2.20;;;1.30;99.90;;;;;;5093245;28;20200;-62
2023/03/11 08:46:24;;;;;;;2.35;2.15;;;1.30;99.90;;;;;;5093837;28;20284;-64
2023/03/11 08:48:51;;;;;;;4.95;2.00;;;1.30;99.90;;;;;;5096137;28;20656;-62
2023/03/11 08:51:18;;;;;;;2.28;1.60;;;1.20;99.90;;;;;;5093326;28;20223;-61
2023/03/11 08:53:46;;;;;;;6.25;1.70;;;1.20;99.90;;;;;;5093768;28;20207;-62
2023/03/11 08:56:12;;;;;;;2.25;1.40;;;1.20;99.90;;;;;;5094014;28;20225;-62
2023/03/11 08:58:39;;;;;;;3.75;1.90;;;1.20;99.90;;;;;;5103260;28;20204;-62
2023/03/11 09:01:07;;;;;;;6.18;2.70;;;1.30;99.90;;;;;;5117632;28;20196;-63
2023/03/11 09:03:36;;;;;;;3.65;2.10;;;1.40;99.90;;;;;;5102023;28;20333;-63
2023/03/11 09:06:06;;;;;;;2.72;2.10;;;1.40;99.90;;;;;;5097125;28;20216;-62
2023/03/11 09:08:34;;;;;;;2.85;1.60;;;1.40;99.90;;;;;;5096843;28;20569;-62
2023/03/11 09:11:00;;;;;;;2.17;1.98;;;1.50;99.90;;;;;;5096886;28;20227;-64
2023/03/11 09:13:27;;;;;;;6.10;2.45;;;1.50;99.90;;;;;;5103183;28;20208;-63
2023/03/11 09:15:54;;;;;;;2.00;1.75;;;1.50;99.90;;;;;;5101495;28;20224;-62
2023/03/11 09:18:21;;;;;;;4.47;2.00;;;1.50;99.90;;;;;;5099354;28;20207;-62
2023/03/11 09:20:49;;;;;;;4.40;2.28;;;1.50;99.90;;;;;;5099468;28;20200;-60
2023/03/11 09:23:17;;;;;;;2.20;2.00;;;1.50;99.90;;;;;;5098516;28;20200;-62
2023/03/11 09:25:44;;;;;;;8.23;1.70;;;1.50;99.90;;;;;;5101229;28;20220;-61
2023/03/11 09:28:11;;;;;;;3.10;1.50;;;1.60;99.90;;;;;;5102594;28;20224;-62
2023/03/11 09:30:38;;;;;;;7.35;1.98;;;1.60;99.90;;;;;;5103560;28;20197;-62
2023/03/11 09:33:04;;;;;;;4.43;1.90;;;1.60;99.90;;;;;;5105524;28;20204;-63
2023/03/11 09:35:31;;;;;;;2.95;1.88;;;1.60;99.90;;;;;;5100704;28;20231;-63
2023/03/11 09:37:59;;;;;;;2.85;1.80;;;1.60;99.90;;;;;;5099662;28;20207;-63
2023/03/11 09:40:32;;;;;;;3.28;1.90;;;1.60;99.90;;;;;;5098425;28;20197;-62
2023/03/11 09:43:11;;;;;;;5.82;2.33;;;1.70;99.90;;;;;;5099072;28;20657;-63
2023/03/11 09:45:45;;;;;;;3.05;1.98;;;1.70;99.90;;;;;;5099659;28;20590;-62
2023/03/11 09:48:21;;;;;;;3.67;1.52;;;1.80;99.90;;;;;;5103414;28;20188;-62
2023/03/11 09:50:53;;;;;;;3.63;1.67;;;1.90;99.90;;;;;;5100111;28;20192;-61
2023/03/11 09:53:32;;;;;;;4.70;2.10;;;1.90;99.90;;;;;;5099472;28;20188;-62
2023/03/11 09:55:59;;;;;;;4.53;1.95;;;1.90;99.90;;;;;;5099206;28;20224;-62
2023/03/11 09:58:36;;;;;;;6.75;1.75;;;1.90;99.90;;;;;;5101087;28;20287;-62
2023/03/11 10:01:08;;;;;;;3.17;2.03;;;1.90;99.90;;;;;;5099850;28;20581;-62
2023/03/11 10:03:37;;;;;;;2.33;1.95;;;2.00;99.90;;;;;;5099773;28;20197;-63
2023/03/11 10:06:13;;;;;;;5.88;2.10;;;2.20;99.90;;;;;;5101133;28;20263;-62
2023/03/11 10:08:45;;;;;;;2.40;1.70;;;2.20;99.90;;;;;;5098872;28;20184;-62
2023/03/11 10:11:47;;;;;;;2.75;1.88;;;2.20;99.90;;;;;;5099321;28;20602;-62
2023/03/11 10:14:27;;;;;;;5.15;1.70;;;2.30;99.90;;;;;;5038351;28;20194;-62
2023/03/11 10:17:00;;;;;;;4.05;1.90;;;2.40;99.90;;;;;;5094267;28;20231;-62
2023/03/11 10:19:37;;;;;;;3.05;1.90;;;2.60;99.90;;;;;;5100110;28;20189;-62
2023/03/11 10:22:14;;;;;;;2.25;1.70;;;2.50;99.90;;;;;;5100681;28;20183;-62
2023/03/11 10:25:09;;;;;;;4.32;2.60;;;2.60;99.90;;;;;;5102256;28;20187;-62
2023/03/11 10:27:40;;;;;;;2.25;1.50;;;2.60;99.90;;;;;;5102369;28;20193;-62
2023/03/11 10:30:15;;;;;;;6.88;2.00;;;2.80;99.90;;;;;;5100889;28;20189;-62
2023/03/11 10:32:46;;;;;;;2.85;1.70;;;2.90;99.90;;;;;;5101109;28;20265;-62
2023/03/11 10:35:18;;;;;;;3.28;1.85;;;3.00;99.90;;;;;;5104139;28;20224;-62
2023/03/11 10:37:51;;;;;;;3.58;1.88;;;3.00;99.90;;;;;;5105908;28;20185;-62
2023/03/11 10:40:28;;;;;;;3.90;1.80;;;2.90;99.90;;;;;;5106580;28;20189;-62
2023/03/11 10:42:58;;;;;;;2.95;1.83;;;2.90;99.90;;;;;;5106920;28;20180;-62
2023/03/11 10:45:25;;;;;;;4.45;2.05;;;2.90;99.90;;;;;;5106181;28;20220;-63
2023/03/11 10:47:52;;;;;;;3.40;1.52;;;2.90;99.90;;;;;;5103514;28;20203;-62
2023/03/11 10:50:19;;;;;;;7.10;2.13;;;3.00;99.90;;;;;;5100140;28;20200;-61
2023/03/11 10:53:06;;;;;;;3.90;2.13;;;3.00;99.90;;;;;;5098661;28;20223;-62
2023/03/11 10:55:35;;;;;;;4.38;1.63;;;3.10;99.90;;;;;;5098560;28;20222;-61
2023/03/11 10:58:07;;;;;;;4.50;1.85;;;3.10;99.90;;;;;;5099076;28;20207;-62
2023/03/11 11:00:34;;;;;;;2.15;1.80;;;3.10;99.90;;;;;;5099161;28;20200;-62
2023/03/11 11:03:03;;;;;;;2.80;1.80;;;3.20;99.90;;;;;;5098165;28;20204;-62
2023/03/11 11:05:31;;;;;;;4.80;2.10;;;3.10;99.90;;;;;;5097280;28;20247;-61
2023/03/11 11:08:07;;;;;;;4.05;1.80;;;3.10;99.90;;;;;;5096751;28;20201;-61
2023/03/11 11:10:36;;;;;;;3.85;1.90;;;3.00;99.90;;;;;;5096850;28;20208;-61
2023/03/11 11:13:17;;;;;;;5.82;2.05;;;2.90;99.90;;;;;;5096577;28;20238;-61
2023/03/11 11:15:53;;;;;;;3.35;2.05;;;2.90;99.90;;;;;;5096085;28;20232;-62
2023/03/11 11:18:23;;;;;;;3.72;1.88;;;3.00;99.90;;;;;;5095930;28;20184;-62
2023/03/11 11:21:02;;;;;;;3.38;2.10;;;3.10;99.90;;;;;;5097161;28;20204;-61
2023/03/11 11:23:37;;;;;;;4.47;2.20;;;3.20;99.90;;;;;;5098165;28;20183;-62
2023/03/11 11:26:07;;;;;;;5.15;2.90;;;3.50;99.90;;;;;;5097787;28;20224;-61
2023/03/11 11:28:36;;;;;;;9.85;1.80;;;3.50;99.90;;;;;;5098433;28;20191;-61
2023/03/11 11:31:04;;;;;;;3.50;1.65;;;3.60;99.90;;;;;;5096646;28;20203;-62
2023/03/11 11:33:33;;;;;;;4.38;1.83;;;3.70;99.90;;;;;;5095539;28;20698;-61
2023/03/11 11:36:02;;;;;;;6.03;2.08;;;3.60;99.90;;;;;;5096414;28;20216;-62
2023/03/11 11:38:31;;;;;;;2.00;1.63;;;3.60;99.90;;;;;;5096547;28;20224;-62
2023/03/11 11:41:01;;;;;;;1.98;1.77;;;3.60;99.90;;;;;;5096829;28;20204;-61
2023/03/11 11:43:46;;;;;;;3.88;1.95;;;3.60;99.90;;;;;;5095600;28;20680;-62
2023/03/11 11:46:23;;;;;;;2.35;2.15;;;3.70;99.90;;;;;;5095372;28;20224;-62
2023/03/11 11:48:59;;;;;;;5.57;1.60;;;3.80;99.90;;;;;;5095410;28;20315;-62
2023/03/11 11:51:32;;;;;;;2.13;1.90;;;3.90;99.90;;;;;;5095671;28;20199;-62
2023/03/11 11:54:03;;;;;;;3.05;1.70;;;3.90;99.90;;;;;;5095821;28;20553;-61
2023/03/11 11:56:30;;;;;;;4.30;1.83;;;3.80;99.90;;;;;;5095013;28;20220;-62
2023/03/11 11:58:58;;;;;;;5.80;3.53;;;3.70;99.90;;;;;;5095093;28;20196;-62
2023/03/11 12:01:38;;;;;;;2.85;2.05;;;3.80;99.90;;;;;;5094738;28;20657;-62
2023/03/11 12:04:27;;;;;;;3.10;2.20;;;3.80;99.90;;;;;;5094988;28;20196;-57
2023/03/11 12:07:27;;;;;;;5.43;2.03;;;3.90;99.90;;;;;;5095175;28;20224;-61
2023/03/11 12:10:02;;;;;;;3.92;2.03;;;3.80;99.90;;;;;;5047960;28;20219;-61
2023/03/11 12:12:36;;;;;;;3.15;1.80;;;3.80;99.90;;;;;;5095857;28;20234;-61
2023/03/11 12:15:11;;;;;;;2.50;1.63;;;3.70;99.90;;;;;;5095041;28;20224;-61
2023/03/11 12:17:41;;;;;;;4.45;1.98;;;3.70;99.90;;;;;;5095317;28;20563;-62
2023/03/11 12:20:14;;;;;;;3.78;1.73;;;3.60;99.90;;;;;;5095405;28;20185;-61
2023/03/11 12:23:04;;;;;;;4.22;2.20;;;3.70;99.90;;;;;;5095001;28;20176;-61
2023/03/11 12:25:38;;;;;;;3.85;2.15;;;3.70;99.90;;;;;;5095626;28;20220;-63
2023/03/11 12:28:18;;;;;;;5.82;1.65;;;3.90;99.90;;;;;;5095589;28;20188;-61
2023/03/11 12:30:51;;;;;;;2.60;2.03;;;4.10;99.90;;;;;;5095160;28;20193;-61
2023/03/11 12:33:24;;;;;;;5.32;2.10;;;4.10;99.90;;;;;;5099008;28;20711;-61
2023/03/11 12:35:54;;;;;;;6.40;2.20;;;4.10;99.90;;;;;;5099255;28;20723;-61
2023/03/11 12:38:28;;;;;;;2.60;2.30;;;4.10;99.90;;;;;;5099232;28;20287;-61
2023/03/11 12:41:26;;;;;;;2.90;1.88;;;4.10;99.90;;;;;;5099053;28;20184;-61
2023/03/11 12:44:01;;;;;;;9.30;2.10;;;4.10;99.90;;;;;;5101087;28;20192;-60
2023/03/11 12:47:10;;;;;;;5.43;2.50;;;4.10;99.90;;;;;;5099213;28;20220;-61
2023/03/11 12:49:40;;;;;;;5.32;2.10;;;4.20;99.90;;;;;;5097938;28;20251;-60
2023/03/11 12:52:23;;;;;;;3.95;2.08;;;4.30;99.90;;;;;;5098535;28;20618;-60
2023/03/11 12:55:36;;;;;;;3.17;1.65;;;4.30;99.90;;;;;;5098521;28;20671;-61
2023/03/11 12:58:43;;;;;;;8.30;3.35;;;4.30;99.90;;;;;;5097905;28;20735;-61
2023/03/11 13:01:42;;;;;;;9.07;2.20;;;4.10;99.90;;;;;;5097420;28;20188;-61
2023/03/11 13:04:25;;;;;;;5.80;2.15;;;4.10;99.90;;;;;;5097134;28;20231;-61
2023/03/11 13:07:16;;;;;;;5.20;2.00;;;4.20;99.90;;;;;;5097268;28;20243;-62
2023/03/11 13:09:43;;;;;;;2.75;1.77;;;4.30;99.90;;;;;;5080611;28;20208;-60